sensor_id;sensor_type;location;lat;lon;timestamp;pressure;altitude;pressure_sealevel;temperature
61977;BMP280;45905;50.570;10.428;2023-02-15T00:00:07;99454.22;;;1.32
61977;BMP280;45905;50.570;10.428;2023-02-15T00:02:38;99452.53;;;1.33
61977;BMP280;45905;50.570;10.428;2023-02-15T00:05:06;99456.09;;;1.27
61977;BMP280;45905;50.570;10.428;2023-02-15T00:07:34;99441.19;;;1.26
61977;BMP280;45905;50.570;10.428;2023-02-15T00:10:01;99445.50;;;1.22
61977;BMP280;45905;50.570;10.428;2023-02-15T00:12:28;99447.31;;;1.19
61977;BMP280;45905;50.570;10.428;2023-02-15T00:14:56;99441.56;;;1.17
61977;BMP280;45905;50.570;10.428;2023-02-15T00:17:23;99442.44;;;1.16
61977;BMP280;45905;50.570;10.428;2023-02-15T00:19:50;99440.31;;;1.07
61977;BMP280;45905;50.570;10.428;2023-02-15T00:22:17;99444.91;;;0.96
61977;BMP280;45905;50.570;10.428;2023-02-15T00:24:44;99438.69;;;0.87
61977;BMP280;45905;50.570;10.428;2023-02-15T00:27:11;99446.34;;;0.82
61977;BMP280;45905;50.570;10.428;2023-02-15T00:29:39;99442.47;;;0.76
61977;BMP280;45905;50.570;10.428;2023-02-15T00:32:06;99441.53;;;0.78
61977;BMP280;45905;50.570;10.428;2023-02-15T00:34:33;99439.66;;;0.83
61977;BMP280;45905;50.570;10.428;2023-02-15T00:37:00;99436.91;;;0.89
61977;BMP280;45905;50.570;10.428;2023-02-15T00:39:27;99437.56;;;0.94
61977;BMP280;45905;50.570;10.428;2023-02-15T00:41:55;99437.41;;;0.96
61977;BMP280;45905;50.570;10.428;2023-02-15T00:44:23;99435.75;;;0.97
61977;BMP280;45905;50.570;10.428;2023-02-15T00:46:50;99429.00;;;0.99
61977;BMP280;45905;50.570;10.428;2023-02-15T00:49:17;99428.09;;;1.01
61977;BMP280;45905;50.570;10.428;2023-02-15T00:51:44;99419.97;;;0.96
61977;BMP280;45905;50.570;10.428;2023-02-15T00:54:11;99424.53;;;0.87
61977;BMP280;45905;50.570;10.428;2023-02-15T00:56:38;99408.97;;;0.81
61977;BMP280;45905;50.570;10.428;2023-02-15T00:59:05;99419.09;;;0.78
61977;BMP280;45905;50.570;10.428;2023-02-15T01:01:32;99404.25;;;0.75
61977;BMP280;45905;50.570;10.428;2023-02-15T01:03:59;99404.00;;;0.81
61977;BMP280;45905;50.570;10.428;2023-02-15T01:06:28;99404.69;;;0.84
61977;BMP280;45905;50.570;10.428;2023-02-15T01:08:55;99411.16;;;0.88
61977;BMP280;45905;50.570;10.428;2023-02-15T01:11:23;99407.13;;;0.86
61977;BMP280;45905;50.570;10.428;2023-02-15T01:13:57;99408.88;;;0.84
61977;BMP280;45905;50.570;10.428;2023-02-15T01:16:27;99408.16;;;0.80
61977;BMP280;45905;50.570;10.428;2023-02-15T01:18:55;99401.81;;;0.74
61977;BMP280;45905;50.570;10.428;2023-02-15T01:21:25;99410.28;;;0.70
61977;BMP280;45905;50.570;10.428;2023-02-15T01:23:53;99398.56;;;0.72
61977;BMP280;45905;50.570;10.428;2023-02-15T01:26:20;99402.72;;;0.71
61977;BMP280;45905;50.570;10.428;2023-02-15T01:28:48;99398.44;;;0.75
61977;BMP280;45905;50.570;10.428;2023-02-15T01:31:19;99404.13;;;0.78
61977;BMP280;45905;50.570;10.428;2023-02-15T01:33:48;99396.50;;;0.81
61977;BMP280;45905;50.570;10.428;2023-02-15T01:36:15;99397.56;;;0.76
61977;BMP280;45905;50.570;10.428;2023-02-15T01:38:44;99399.38;;;0.72
61977;BMP280;45905;50.570;10.428;2023-02-15T01:41:12;99387.03;;;0.69
61977;BMP280;45905;50.570;10.428;2023-02-15T01:44:00;99388.13;;;0.62
61977;BMP280;45905;50.570;10.428;2023-02-15T01:46:36;99382.63;;;0.55
61977;BMP280;45905;50.570;10.428;2023-02-15T01:49:15;99382.00;;;0.50
61977;BMP280;45905;50.570;10.428;2023-02-15T01:51:45;99382.81;;;0.50
61977;BMP280;45905;50.570;10.428;2023-02-15T01:54:29;99377.78;;;0.52
61977;BMP280;45905;50.570;10.428;2023-02-15T01:57:12;99379.47;;;0.51
61977;BMP280;45905;50.570;10.428;2023-02-15T01:59:45;99381.16;;;0.51
61977;BMP280;45905;50.570;10.428;2023-02-15T02:02:15;99389.50;;;0.50
61977;BMP280;45905;50.570;10.428;2023-02-15T02:04:49;99376.88;;;0.53
61977;BMP280;45905;50.570;10.428;2023-02-15T02:07:23;99370.16;;;0.55
61977;BMP280;45905;50.570;10.428;2023-02-15T02:09:51;99371.69;;;0.58
61977;BMP280;45905;50.570;10.428;2023-02-15T02:12:24;99374.78;;;0.63
61977;BMP280;45905;50.570;10.428;2023-02-15T02:14:54;99383.34;;;0.58
61977;BMP280;45905;50.570;10.428;2023-02-15T02:33:07;99370.97;;;0.55
61977;BMP280;45905;50.570;10.428;2023-02-15T02:38:52;99367.56;;;0.57
61977;BMP280;45905;50.570;10.428;2023-02-15T02:42:06;99359.16;;;0.60
61977;BMP280;45905;50.570;10.428;2023-02-15T02:44:44;99366.44;;;0.64
61977;BMP280;45905;50.570;10.428;2023-02-15T02:47:48;99362.50;;;0.59
61977;BMP280;45905;50.570;10.428;2023-02-15T02:50:25;99357.53;;;0.59
61977;BMP280;45905;50.570;10.428;2023-02-15T02:52:55;99360.69;;;0.62
61977;BMP280;45905;50.570;10.428;2023-02-15T02:55:56;99345.06;;;0.59
61977;BMP280;45905;50.570;10.428;2023-02-15T02:58:42;99347.41;;;0.62
61977;BMP280;45905;50.570;10.428;2023-02-15T03:01:27;99343.50;;;0.57
61977;BMP280;45905;50.570;10.428;2023-02-15T03:04:02;99345.00;;;0.60
61977;BMP280;45905;50.570;10.428;2023-02-15T03:07:03;99340.00;;;0.60
61977;BMP280;45905;50.570;10.428;2023-02-15T03:09:42;99338.25;;;0.62
61977;BMP280;45905;50.570;10.428;2023-02-15T03:12:28;99329.91;;;0.63
61977;BMP280;45905;50.570;10.428;2023-02-15T03:15:12;99333.25;;;0.62
61977;BMP280;45905;50.570;10.428;2023-02-15T03:17:45;99332.38;;;0.63
61977;BMP280;45905;50.570;10.428;2023-02-15T03:20:25;99329.13;;;0.61
61977;BMP280;45905;50.570;10.428;2023-02-15T03:23:21;99336.50;;;0.64
61977;BMP280;45905;50.570;10.428;2023-02-15T03:25:57;99330.72;;;0.64
61977;BMP280;45905;50.570;10.428;2023-02-15T03:28:37;99321.59;;;0.63
61977;BMP280;45905;50.570;10.428;2023-02-15T03:31:08;99318.50;;;0.58
61977;BMP280;45905;50.570;10.428;2023-02-15T03:33:57;99330.91;;;0.59
61977;BMP280;45905;50.570;10.428;2023-02-15T03:36:47;99326.03;;;0.57
61977;BMP280;45905;50.570;10.428;2023-02-15T03:39:37;99325.28;;;0.55
61977;BMP280;45905;50.570;10.428;2023-02-15T03:42:19;99324.53;;;0.53
61977;BMP280;45905;50.570;10.428;2023-02-15T03:44:58;99323.66;;;0.54
61977;BMP280;45905;50.570;10.428;2023-02-15T03:47:32;99319.53;;;0.53
61977;BMP280;45905;50.570;10.428;2023-02-15T03:50:12;99322.28;;;0.47
61977;BMP280;45905;50.570;10.428;2023-02-15T03:53:02;99315.69;;;0.46
61977;BMP280;45905;50.570;10.428;2023-02-15T03:55:33;99314.06;;;0.45
61977;BMP280;45905;50.570;10.428;2023-02-15T03:58:02;99312.44;;;0.44
61977;BMP280;45905;50.570;10.428;2023-02-15T04:00:59;99325.97;;;0.38
61977;BMP280;45905;50.570;10.428;2023-02-15T04:03:56;99317.78;;;0.35
61977;BMP280;45905;50.570;10.428;2023-02-15T04:06:24;99314.41;;;0.36
61977;BMP280;45905;50.570;10.428;2023-02-15T04:08:51;99319.41;;;0.36
61977;BMP280;45905;50.570;10.428;2023-02-15T04:11:36;99314.63;;;0.32
61977;BMP280;45905;50.570;10.428;2023-02-15T04:14:04;99310.56;;;0.29
61977;BMP280;45905;50.570;10.428;2023-02-15T04:16:51;99313.84;;;0.30
61977;BMP280;45905;50.570;10.428;2023-02-15T04:19:18;99311.41;;;0.28
61977;BMP280;45905;50.570;10.428;2023-02-15T04:22:04;99313.66;;;0.15
61977;BMP280;45905;50.570;10.428;2023-02-15T04:24:49;99315.63;;;0.07
61977;BMP280;45905;50.570;10.428;2023-02-15T04:27:36;99308.84;;;0.10
61977;BMP280;45905;50.570;10.428;2023-02-15T04:30:04;99311.28;;;0.12
61977;BMP280;45905;50.570;10.428;2023-02-15T04:32:32;99308.78;;;0.12
61977;BMP280;45905;50.570;10.428;2023-02-15T04:35:00;99300.50;;;0.11
61977;BMP280;45905;50.570;10.428;2023-02-15T04:37:27;99300.50;;;0.11
61977;BMP280;45905;50.570;10.428;2023-02-15T04:39:55;99303.69;;;0.15
61977;BMP280;45905;50.570;10.428;2023-02-15T04:42:22;99301.94;;;0.17
61977;BMP280;45905;50.570;10.428;2023-02-15T04:44:49;99302.63;;;0.20
61977;BMP280;45905;50.570;10.428;2023-02-15T04:47:16;99299.16;;;0.24
61977;BMP280;45905;50.570;10.428;2023-02-15T04:49:43;99296.59;;;0.25
61977;BMP280;45905;50.570;10.428;2023-02-15T04:52:11;99289.00;;;0.28
61977;BMP280;45905;50.570;10.428;2023-02-15T04:54:38;99295.59;;;0.29
61977;BMP280;45905;50.570;10.428;2023-02-15T04:57:05;99279.81;;;0.29
61977;BMP280;45905;50.570;10.428;2023-02-15T04:59:33;99288.13;;;0.29
61977;BMP280;45905;50.570;10.428;2023-02-15T05:02:00;99288.06;;;0.31
61977;BMP280;45905;50.570;10.428;2023-02-15T05:04:27;99293.09;;;0.29
61977;BMP280;45905;50.570;10.428;2023-02-15T05:06:54;99288.19;;;0.28
61977;BMP280;45905;50.570;10.428;2023-02-15T05:09:21;99285.69;;;0.28
61977;BMP280;45905;50.570;10.428;2023-02-15T05:11:49;99288.13;;;0.29
61977;BMP280;45905;50.570;10.428;2023-02-15T05:14:16;99284.06;;;0.27
61977;BMP280;45905;50.570;10.428;2023-02-15T05:16:43;99269.06;;;0.28
61977;BMP280;45905;50.570;10.428;2023-02-15T05:19:10;99255.78;;;0.28
61977;BMP280;45905;50.570;10.428;2023-02-15T05:21:37;99258.16;;;0.31
61977;BMP280;45905;50.570;10.428;2023-02-15T05:24:05;99258.09;;;0.32
61977;BMP280;45905;50.570;10.428;2023-02-15T05:26:52;99261.34;;;0.34
61977;BMP280;45905;50.570;10.428;2023-02-15T05:29:38;99266.44;;;0.31
61977;BMP280;45905;50.570;10.428;2023-02-15T05:32:05;99270.00;;;0.26
61977;BMP280;45905;50.570;10.428;2023-02-15T05:34:32;99268.81;;;0.15
61977;BMP280;45905;50.570;10.428;2023-02-15T05:37:00;99277.19;;;0.12
61977;BMP280;45905;50.570;10.428;2023-02-15T05:39:27;99266.25;;;0.16
61977;BMP280;45905;50.570;10.428;2023-02-15T05:41:54;99264.75;;;0.12
61977;BMP280;45905;50.570;10.428;2023-02-15T05:44:21;99273.91;;;0.12
61977;BMP280;45905;50.570;10.428;2023-02-15T05:46:48;99270.53;;;0.13
61977;BMP280;45905;50.570;10.428;2023-02-15T05:49:15;99275.53;;;0.13
61977;BMP280;45905;50.570;10.428;2023-02-15T05:51:42;99265.66;;;0.10
61977;BMP280;45905;50.570;10.428;2023-02-15T05:54:09;99267.53;;;0.05
61977;BMP280;45905;50.570;10.428;2023-02-15T05:56:36;99277.41;;;0.08
61977;BMP280;45905;50.570;10.428;2023-02-15T05:59:03;99280.59;;;0.10
61977;BMP280;45905;50.570;10.428;2023-02-15T06:01:30;99283.06;;;0.11
61977;BMP280;45905;50.570;10.428;2023-02-15T06:03:57;99287.28;;;0.09
61977;BMP280;45905;50.570;10.428;2023-02-15T06:06:25;99287.16;;;0.12
61977;BMP280;45905;50.570;10.428;2023-02-15T06:08:52;99288.84;;;0.12
61977;BMP280;45905;50.570;10.428;2023-02-15T06:11:19;99296.22;;;0.15
61977;BMP280;45905;50.570;10.428;2023-02-15T06:13:46;99293.56;;;0.18
61977;BMP280;45905;50.570;10.428;2023-02-15T06:16:13;99290.22;;;0.18
61977;BMP280;45905;50.570;10.428;2023-02-15T06:18:42;99294.34;;;0.19
61977;BMP280;45905;50.570;10.428;2023-02-15T06:21:10;99294.38;;;0.18
61977;BMP280;45905;50.570;10.428;2023-02-15T06:23:37;99286.34;;;0.12
61977;BMP280;45905;50.570;10.428;2023-02-15T06:26:04;99297.94;;;0.13
61977;BMP280;45905;50.570;10.428;2023-02-15T06:28:31;99295.44;;;0.13
61977;BMP280;45905;50.570;10.428;2023-02-15T06:30:58;99295.56;;;0.10
61977;BMP280;45905;50.570;10.428;2023-02-15T06:33:26;99293.94;;;0.09
61977;BMP280;45905;50.570;10.428;2023-02-15T06:35:53;99292.19;;;0.11
61977;BMP280;45905;50.570;10.428;2023-02-15T06:38:20;99295.44;;;0.13
61977;BMP280;45905;50.570;10.428;2023-02-15T06:40:47;99292.91;;;0.14
61977;BMP280;45905;50.570;10.428;2023-02-15T06:43:14;99302.06;;;0.14
61977;BMP280;45905;50.570;10.428;2023-02-15T06:45:41;99304.44;;;0.17
61977;BMP280;45905;50.570;10.428;2023-02-15T06:48:09;99308.78;;;0.12
61977;BMP280;45905;50.570;10.428;2023-02-15T06:50:37;99307.16;;;0.11
61977;BMP280;45905;50.570;10.428;2023-02-15T06:53:05;99305.41;;;0.13
61977;BMP280;45905;50.570;10.428;2023-02-15T06:55:32;99299.56;;;0.14
61977;BMP280;45905;50.570;10.428;2023-02-15T06:57:59;99302.88;;;0.14
61977;BMP280;45905;50.570;10.428;2023-02-15T07:00:26;99305.97;;;0.19
61977;BMP280;45905;50.570;10.428;2023-02-15T07:02:58;99304.19;;;0.22
61977;BMP280;45905;50.570;10.428;2023-02-15T07:05:26;99303.31;;;0.23
61977;BMP280;45905;50.570;10.428;2023-02-15T07:07:59;99301.59;;;0.25
61977;BMP280;45905;50.570;10.428;2023-02-15T07:10:28;99299.97;;;0.24
61977;BMP280;45905;50.570;10.428;2023-02-15T07:12:55;99289.13;;;0.25
61977;BMP280;45905;50.570;10.428;2023-02-15T07:15:23;99284.88;;;0.27
61977;BMP280;45905;50.570;10.428;2023-02-15T07:17:50;99285.69;;;0.28
61977;BMP280;45905;50.570;10.428;2023-02-15T07:20:22;99306.44;;;0.28
61977;BMP280;45905;50.570;10.428;2023-02-15T07:22:50;99296.34;;;0.31
61977;BMP280;45905;50.570;10.428;2023-02-15T07:25:17;99298.84;;;0.31
61977;BMP280;45905;50.570;10.428;2023-02-15T07:27:45;99293.09;;;0.29
61977;BMP280;45905;50.570;10.428;2023-02-15T07:30:16;99289.00;;;0.28
61977;BMP280;45905;50.570;10.428;2023-02-15T07:32:44;99283.94;;;0.30
61977;BMP280;45905;50.570;10.428;2023-02-15T07:35:33;99287.19;;;0.32
61977;BMP280;45905;50.570;10.428;2023-02-15T07:38:00;99282.22;;;0.32
61977;BMP280;45905;50.570;10.428;2023-02-15T07:40:28;99284.66;;;0.33
61977;BMP280;45905;50.570;10.428;2023-02-15T07:42:57;99282.00;;;0.36
61977;BMP280;45905;50.570;10.428;2023-02-15T07:45:26;99284.44;;;0.38
61977;BMP280;45905;50.570;10.428;2023-02-15T07:47:53;99289.31;;;0.40
61977;BMP280;45905;50.570;10.428;2023-02-15T07:50:20;99286.81;;;0.40
61977;BMP280;45905;50.570;10.428;2023-02-15T07:52:48;99287.38;;;0.47
61977;BMP280;45905;50.570;10.428;2023-02-15T07:55:15;99287.22;;;0.51
61977;BMP280;45905;50.570;10.428;2023-02-15T07:57:44;99278.88;;;0.52
61977;BMP280;45905;50.570;10.428;2023-02-15T08:00:14;99282.13;;;0.53
61977;BMP280;45905;50.570;10.428;2023-02-15T08:02:47;99285.38;;;0.55
61977;BMP280;45905;50.570;10.428;2023-02-15T08:05:15;99277.03;;;0.56
61977;BMP280;45905;50.570;10.428;2023-02-15T08:07:43;99282.78;;;0.57
61977;BMP280;45905;50.570;10.428;2023-02-15T08:10:10;99291.75;;;0.61
61977;BMP280;45905;50.570;10.428;2023-02-15T08:13:00;99281.75;;;0.61
61977;BMP280;45905;50.570;10.428;2023-02-15T08:15:32;99278.41;;;0.62
61977;BMP280;45905;50.570;10.428;2023-02-15T08:17:59;99291.63;;;0.64
61977;BMP280;45905;50.570;10.428;2023-02-15T08:20:26;99286.63;;;0.64
61977;BMP280;45905;50.570;10.428;2023-02-15T08:22:53;99284.03;;;0.67
61977;BMP280;45905;50.570;10.428;2023-02-15T08:25:20;99280.03;;;0.63
61977;BMP280;45905;50.570;10.428;2023-02-15T08:27:50;99284.94;;;0.65
61977;BMP280;45905;50.570;10.428;2023-02-15T08:30:17;99284.88;;;0.66
61977;BMP280;45905;50.570;10.428;2023-02-15T08:32:44;99282.19;;;0.71
61977;BMP280;45905;50.570;10.428;2023-02-15T08:35:11;99277.97;;;0.73
61977;BMP280;45905;50.570;10.428;2023-02-15T08:37:38;99270.34;;;0.76
61977;BMP280;45905;50.570;10.428;2023-02-15T08:40:06;99267.66;;;0.80
61977;BMP280;45905;50.570;10.428;2023-02-15T08:42:34;99268.41;;;0.82
61977;BMP280;45905;50.570;10.428;2023-02-15T08:45:01;99281.63;;;0.84
61977;BMP280;45905;50.570;10.428;2023-02-15T08:47:28;99279.09;;;0.85
61977;BMP280;45905;50.570;10.428;2023-02-15T08:49:55;99282.38;;;0.86
61977;BMP280;45905;50.570;10.428;2023-02-15T08:52:22;99282.31;;;0.87
61977;BMP280;45905;50.570;10.428;2023-02-15T08:54:49;99265.78;;;0.85
61977;BMP280;45905;50.570;10.428;2023-02-15T08:57:17;99276.69;;;0.82
61977;BMP280;45905;50.570;10.428;2023-02-15T08:59:44;99267.53;;;0.83
61977;BMP280;45905;50.570;10.428;2023-02-15T09:02:11;99259.94;;;0.86
61977;BMP280;45905;50.570;10.428;2023-02-15T09:04:38;99259.78;;;0.89
61977;BMP280;45905;50.570;10.428;2023-02-15T09:07:05;99265.41;;;0.94
61977;BMP280;45905;50.570;10.428;2023-02-15T09:09:32;99262.84;;;0.95
61977;BMP280;45905;50.570;10.428;2023-02-15T09:11:59;99260.66;;;0.88
61977;BMP280;45905;50.570;10.428;2023-02-15T09:14:27;99261.41;;;0.90
61977;BMP280;45905;50.570;10.428;2023-02-15T09:16:55;99268.66;;;0.95
61977;BMP280;45905;50.570;10.428;2023-02-15T09:19:23;99252.66;;;0.99
61977;BMP280;45905;50.570;10.428;2023-02-15T09:21:50;99264.84;;;1.05
61977;BMP280;45905;50.570;10.428;2023-02-15T09:24:18;99268.81;;;1.11
61977;BMP280;45905;50.570;10.428;2023-02-15T09:26:47;99267.88;;;1.13
61977;BMP280;45905;50.570;10.428;2023-02-15T09:29:17;99267.59;;;1.19
61977;BMP280;45905;50.570;10.428;2023-02-15T09:31:47;99264.06;;;1.23
61977;BMP280;45905;50.570;10.428;2023-02-15T09:34:20;99265.63;;;1.25
61977;BMP280;45905;50.570;10.428;2023-02-15T09:36:47;99270.50;;;1.28
61977;BMP280;45905;50.570;10.428;2023-02-15T09:39:26;99266.25;;;1.30
61977;BMP280;45905;50.570;10.428;2023-02-15T09:42:24;99263.59;;;1.33
61977;BMP280;45905;50.570;10.428;2023-02-15T09:45:29;99257.66;;;1.35
61977;BMP280;45905;50.570;10.428;2023-02-15T09:54:20;99249.63;;;1.47
61977;BMP280;45905;50.570;10.428;2023-02-15T09:57:29;99251.25;;;1.48
61977;BMP280;45905;50.570;10.428;2023-02-15T10:00:24;99256.03;;;1.52
61977;BMP280;45905;50.570;10.428;2023-02-15T10:12:01;99253.06;;;1.63
61977;BMP280;45905;50.570;10.428;2023-02-15T10:26:21;99248.53;;;1.71
61977;BMP280;45905;50.570;10.428;2023-02-15T10:29:25;99246.78;;;1.72
61977;BMP280;45905;50.570;10.428;2023-02-15T10:32:04;99237.28;;;1.79
61977;BMP280;45905;50.570;10.428;2023-02-15T10:37:55;99225.59;;;1.63
61977;BMP280;45905;50.570;10.428;2023-02-15T10:44:19;99220.63;;;1.79
61977;BMP280;45905;50.570;10.428;2023-02-15T10:55:38;99217.44;;;1.76
61977;BMP280;45905;50.570;10.428;2023-02-15T11:08:16;99208.50;;;1.89
61977;BMP280;45905;50.570;10.428;2023-02-15T11:10:52;99213.50;;;1.89
61977;BMP280;45905;50.570;10.428;2023-02-15T11:13:26;99204.19;;;1.92
61977;BMP280;45905;50.570;10.428;2023-02-15T11:16:05;99205.63;;;1.96
61977;BMP280;45905;50.570;10.428;2023-02-15T11:18:40;99202.25;;;1.97
61977;BMP280;45905;50.570;10.428;2023-02-15T11:21:22;99204.56;;;2.01
61977;BMP280;45905;50.570;10.428;2023-02-15T11:23:51;99202.69;;;2.05
61977;BMP280;45905;50.570;10.428;2023-02-15T11:26:41;99207.63;;;2.06
61977;BMP280;45905;50.570;10.428;2023-02-15T11:32:02;99210.56;;;1.97
61977;BMP280;45905;50.570;10.428;2023-02-15T11:34:38;99212.09;;;1.83
61977;BMP280;45905;50.570;10.428;2023-02-15T11:37:20;99210.69;;;1.78
61977;BMP280;45905;50.570;10.428;2023-02-15T11:39:50;99192.25;;;1.80
61977;BMP280;45905;50.570;10.428;2023-02-15T11:42:23;99188.56;;;1.87
61977;BMP280;45905;50.570;10.428;2023-02-15T11:45:15;99192.41;;;1.94
61977;BMP280;45905;50.570;10.428;2023-02-15T11:47:43;99184.19;;;1.92
61977;BMP280;45905;50.570;10.428;2023-02-15T11:50:23;99188.13;;;1.79
61977;BMP280;45905;50.570;10.428;2023-02-15T11:53:04;99186.06;;;1.71
61977;BMP280;45905;50.570;10.428;2023-02-15T11:55:32;99191.81;;;1.72
61977;BMP280;45905;50.570;10.428;2023-02-15T12:01:42;99185.50;;;1.82
61977;BMP280;45905;50.570;10.428;2023-02-15T12:03:59;99181.81;;;1.72
61977;BMP280;45905;50.570;10.428;2023-02-15T12:06:36;99193.38;;;1.75
61977;BMP280;45905;50.570;10.428;2023-02-15T12:09:37;99190.56;;;1.81
61977;BMP280;45905;50.570;10.428;2023-02-15T12:12:27;99187.19;;;1.82
61977;BMP280;45905;50.570;10.428;2023-02-15T12:14:57;99190.13;;;1.73
61977;BMP280;45905;50.570;10.428;2023-02-15T12:17:41;99182.34;;;1.79
61977;BMP280;45905;50.570;10.428;2023-02-15T12:23:03;99191.38;;;1.81
61977;BMP280;45905;50.570;10.428;2023-02-15T12:25:50;99198.34;;;1.75
61977;BMP280;45905;50.570;10.428;2023-02-15T12:28:33;99190.63;;;1.63
61977;BMP280;45905;50.570;10.428;2023-02-15T12:31:09;99178.88;;;1.65
61977;BMP280;45905;50.570;10.428;2023-02-15T12:33:44;99190.31;;;1.69
61977;BMP280;45905;50.570;10.428;2023-02-15T12:36:21;99186.94;;;1.70
61977;BMP280;45905;50.570;10.428;2023-02-15T12:39:27;99180.13;;;1.73
61977;BMP280;45905;50.570;10.428;2023-02-15T12:44:52;99174.69;;;1.82
61977;BMP280;45905;50.570;10.428;2023-02-15T12:47:20;99174.63;;;1.83
61977;BMP280;45905;50.570;10.428;2023-02-15T12:50:22;99166.09;;;1.87
61977;BMP280;45905;50.570;10.428;2023-02-15T12:53:06;99169.63;;;1.83
61977;BMP280;45905;50.570;10.428;2023-02-15T12:55:34;99158.84;;;1.83
61977;BMP280;45905;50.570;10.428;2023-02-15T12:58:20;99166.22;;;1.84
61977;BMP280;45905;50.570;10.428;2023-02-15T13:01:23;99160.34;;;1.85
61977;BMP280;45905;50.570;10.428;2023-02-15T13:04:21;99154.19;;;1.92
61977;BMP280;45905;50.570;10.428;2023-02-15T13:06:52;99156.31;;;1.99
61977;BMP280;45905;50.570;10.428;2023-02-15T13:09:38;99159.34;;;2.06
61977;BMP280;45905;50.570;10.428;2023-02-15T13:12:30;99158.44;;;2.07
61977;BMP280;45905;50.570;10.428;2023-02-15T13:14:59;99159.56;;;2.01
61977;BMP280;45905;50.570;10.428;2023-02-15T13:17:33;99161.59;;;1.93
61977;BMP280;45905;50.570;10.428;2023-02-15T13:20:06;99156.59;;;1.93
61977;BMP280;45905;50.570;10.428;2023-02-15T13:22:45;99158.09;;;1.97
61977;BMP280;45905;50.570;10.428;2023-02-15T13:25:28;99161.09;;;2.04
61977;BMP280;45905;50.570;10.428;2023-02-15T13:28:04;99156.69;;;2.09
61977;BMP280;45905;50.570;10.428;2023-02-15T13:30:50;99148.16;;;2.12
61977;BMP280;45905;50.570;10.428;2023-02-15T13:33:34;99148.53;;;2.05
61977;BMP280;45905;50.570;10.428;2023-02-15T13:36:29;99138.41;;;1.91
61977;BMP280;45905;50.570;10.428;2023-02-15T13:41:52;99138.16;;;1.96
61977;BMP280;45905;50.570;10.428;2023-02-15T14:08:13;99112.09;;;2.33
61977;BMP280;45905;50.570;10.428;2023-02-15T14:19:16;99101.19;;;2.34
61977;BMP280;45905;50.570;10.428;2023-02-15T14:24:49;99102.50;;;2.41
61977;BMP280;45905;50.570;10.428;2023-02-15T14:27:56;99099.84;;;2.44
61977;BMP280;45905;50.570;10.428;2023-02-15T14:30:33;99099.78;;;2.45
61977;BMP280;45905;50.570;10.428;2023-02-15T14:35:43;99088.72;;;2.49
61977;BMP280;45905;50.570;10.428;2023-02-15T14:41:11;99082.91;;;2.48
61977;BMP280;45905;50.570;10.428;2023-02-15T14:46:42;99077.09;;;2.48
61977;BMP280;45905;50.570;10.428;2023-02-15T14:49:37;99077.03;;;2.49
61977;BMP280;45905;50.570;10.428;2023-02-15T14:52:11;99077.75;;;2.51
61977;BMP280;45905;50.570;10.428;2023-02-15T14:59:58;99090.41;;;2.48
61977;BMP280;45905;50.570;10.428;2023-02-15T15:02:44;99092.19;;;2.47
61977;BMP280;45905;50.570;10.428;2023-02-15T15:05:47;99097.91;;;2.33
61977;BMP280;45905;50.570;10.428;2023-02-15T15:08:42;99095.94;;;2.23
61977;BMP280;45905;50.570;10.428;2023-02-15T15:14:11;99093.69;;;2.19
61977;BMP280;45905;50.570;10.428;2023-02-15T15:17:00;99084.44;;;2.19
61977;BMP280;45905;50.570;10.428;2023-02-15T15:22:23;99089.16;;;2.25
61977;BMP280;45905;50.570;10.428;2023-02-15T15:27:51;99087.53;;;2.24
61977;BMP280;45905;50.570;10.428;2023-02-15T15:48:36;99075.94;;;2.23
61977;BMP280;45905;50.570;10.428;2023-02-15T15:51:14;99080.19;;;2.21
61977;BMP280;45905;50.570;10.428;2023-02-15T15:53:48;99074.31;;;2.22
61977;BMP280;45905;50.570;10.428;2023-02-15T15:56:24;99068.44;;;2.23
61977;BMP280;45905;50.570;10.428;2023-02-15T15:58:58;99064.16;;;2.25
61977;BMP280;45905;50.570;10.428;2023-02-15T16:01:30;99066.59;;;2.27
61977;BMP280;45905;50.570;10.428;2023-02-15T16:03:59;99058.34;;;2.25
61977;BMP280;45905;50.570;10.428;2023-02-15T16:06:38;99060.03;;;2.24
61977;BMP280;45905;50.570;10.428;2023-02-15T16:09:17;99060.94;;;2.23
61977;BMP280;45905;50.570;10.428;2023-02-15T16:12:13;99062.69;;;2.21
61977;BMP280;45905;50.570;10.428;2023-02-15T16:14:42;99062.63;;;2.23
61977;BMP280;45905;50.570;10.428;2023-02-15T16:17:24;99068.50;;;2.22
61977;BMP280;45905;50.570;10.428;2023-02-15T16:19:57;99063.50;;;2.22
61977;BMP280;45905;50.570;10.428;2023-02-15T16:22:26;99068.56;;;2.20
61977;BMP280;45905;50.570;10.428;2023-02-15T16:28:12;99077.19;;;2.15
61977;BMP280;45905;50.570;10.428;2023-02-15T16:30:40;99077.16;;;2.00
61977;BMP280;45905;50.570;10.428;2023-02-15T16:33:13;99080.94;;;1.91
61977;BMP280;45905;50.570;10.428;2023-02-15T16:35:54;99086.94;;;1.88
61977;BMP280;45905;50.570;10.428;2023-02-15T16:41:23;99080.28;;;1.71
61977;BMP280;45905;50.570;10.428;2023-02-15T16:43:54;99081.53;;;1.63
61977;BMP280;45905;50.570;10.428;2023-02-15T16:46:43;99083.97;;;1.65
61977;BMP280;45905;50.570;10.428;2023-02-15T16:49:25;99090.41;;;1.69
61977;BMP280;45905;50.570;10.428;2023-02-15T16:52:04;99089.03;;;1.63
61977;BMP280;45905;50.570;10.428;2023-02-15T16:54:34;99100.69;;;1.63
61977;BMP280;45905;50.570;10.428;2023-02-15T16:57:02;99093.19;;;1.63
61977;BMP280;45905;50.570;10.428;2023-02-15T16:59:41;99082.34;;;1.64
61977;BMP280;45905;50.570;10.428;2023-02-15T17:02:29;99082.34;;;1.64
61977;BMP280;45905;50.570;10.428;2023-02-15T17:05:18;99090.56;;;1.66
61977;BMP280;45905;50.570;10.428;2023-02-15T17:10:41;99087.91;;;1.69
61977;BMP280;45905;50.570;10.428;2023-02-15T17:13:17;99094.66;;;1.67
61977;BMP280;45905;50.570;10.428;2023-02-15T17:18:39;99077.63;;;1.58
61977;BMP280;45905;50.570;10.428;2023-02-15T17:21:19;99090.28;;;1.55
61977;BMP280;45905;50.570;10.428;2023-02-15T17:23:50;99096.06;;;1.55
61977;BMP280;45905;50.570;10.428;2023-02-15T17:28:58;99078.06;;;1.49
61977;BMP280;45905;50.570;10.428;2023-02-15T17:31:32;99083.06;;;1.49
61977;BMP280;45905;50.570;10.428;2023-02-15T17:34:01;99086.22;;;1.52
61977;BMP280;45905;50.570;10.428;2023-02-15T17:36:30;99096.88;;;1.56
61977;BMP280;45905;50.570;10.428;2023-02-15T17:41:30;99101.28;;;1.51
61977;BMP280;45905;50.570;10.428;2023-02-15T17:43:58;99093.94;;;1.48
61977;BMP280;45905;50.570;10.428;2023-02-15T17:46:29;99097.25;;;1.49